地図

経路データ

SID SEASON NUMBER BASIN SUBBASIN NAME ISO_TIME NATURE LAT LON WMO_WIND WMO_PRES WMO_AGENCY TRACK_TYPE DIST2LAND LANDFALL IFLAG USA_AGENCY USA_ATCF_ID USA_LAT USA_LON USA_RECORD USA_STATUS USA_WIND USA_PRES USA_SSHS USA_R34_NE USA_R34_SE USA_R34_SW USA_R34_NW USA_R50_NE USA_R50_SE USA_R50_SW USA_R50_NW USA_R64_NE USA_R64_SE USA_R64_SW USA_R64_NW USA_POCI USA_ROCI USA_RMW USA_EYE TOKYO_LAT TOKYO_LON TOKYO_GRADE TOKYO_WIND TOKYO_PRES TOKYO_R50_DIR TOKYO_R50_LONG TOKYO_R50_SHORT TOKYO_R30_DIR TOKYO_R30_LONG TOKYO_R30_SHORT TOKYO_LAND CMA_LAT CMA_LON CMA_CAT CMA_WIND CMA_PRES HKO_LAT HKO_LON HKO_CAT HKO_WIND HKO_PRES NEWDELHI_LAT NEWDELHI_LON NEWDELHI_GRADE NEWDELHI_WIND NEWDELHI_PRES NEWDELHI_CI NEWDELHI_DP NEWDELHI_POCI REUNION_LAT REUNION_LON REUNION_TYPE REUNION_WIND REUNION_PRES REUNION_TNUM REUNION_CI REUNION_RMW REUNION_R34_NE REUNION_R34_SE REUNION_R34_SW REUNION_R34_NW REUNION_R50_NE REUNION_R50_SE REUNION_R50_SW REUNION_R50_NW REUNION_R64_NE REUNION_R64_SE REUNION_R64_SW REUNION_R64_NW BOM_LAT BOM_LON BOM_TYPE BOM_WIND BOM_PRES BOM_TNUM BOM_CI BOM_RMW BOM_R34_NE BOM_R34_SE BOM_R34_SW BOM_R34_NW BOM_R50_NE BOM_R50_SE BOM_R50_SW BOM_R50_NW BOM_R64_NE BOM_R64_SE BOM_R64_SW BOM_R64_NW BOM_ROCI BOM_POCI BOM_EYE BOM_POS_METHOD BOM_PRES_METHOD NADI_LAT NADI_LON NADI_CAT NADI_WIND NADI_PRES WELLINGTON_LAT WELLINGTON_LON WELLINGTON_WIND WELLINGTON_PRES DS824_LAT DS824_LON DS824_STAGE DS824_WIND DS824_PRES TD9636_LAT TD9636_LON TD9636_STAGE TD9636_WIND TD9636_PRES TD9635_LAT TD9635_LON TD9635_WIND TD9635_PRES TD9635_ROCI NEUMANN_LAT NEUMANN_LON NEUMANN_CLASS NEUMANN_WIND NEUMANN_PRES MLC_LAT MLC_LON MLC_CLASS MLC_WIND MLC_PRES USA_GUST BOM_GUST BOM_GUST_PER REUNION_GUST REUNION_GUST_PER USA_SEAHGT USA_SEARAD_NE USA_SEARAD_SE USA_SEARAD_SW USA_SEARAD_NW STORM_SPEED STORM_DIR
1982131S09157 1982 28 SP EA CLAUDIA 1982-05-11 06:00:00 TS -9.00000 157.100 main 79 57 O_________O_O_ jtwc_sh SH281982 -9.00000 157.100 15 -1 -9.00000 157.100 1 15 -9.00000 157.100 TC 15 5 4
1982131S09157 1982 28 SP EA CLAUDIA 1982-05-11 09:00:00 TS -8.74124 157.108 main 46 24 P_________P_P_ SH281982 -8.71500 157.105 15 -1 -8.79371 157.114 1 15 -8.71500 157.105 TC 15 5 0
1982131S09157 1982 28 SP EA CLAUDIA 1982-05-11 12:00:00 TS -8.53664 157.104 main 24 15 O_________P_O_ jtwc_sh SH281982 -8.50000 157.100 15 -1 -8.60993 157.112 1 15 -8.50000 157.100 TC 15 3 353
1982131S09157 1982 28 SP EA CLAUDIA 1982-05-11 15:00:00 TS -8.42706 157.075 main 15 15 P_________P_P_ SH281982 -8.40499 157.072 15 -1 -8.47120 157.080 1 15 -8.40499 157.072 TC 15 2 322
1982131S09157 1982 28 SP EA CLAUDIA 1982-05-11 18:00:00 TS -8.40000 157.000 main 24 24 O_________O_O_ jtwc_sh SH281982 -8.40000 157.000 15 -1 -8.40000 157.000 1 15 -8.40000 157.000 TC 15 2 273
1982131S09157 1982 28 SP EA CLAUDIA 1982-05-11 21:00:00 TS -8.41732 156.865 main 34 34 P_________P_P_ SH281982 -8.42001 156.865 15 -1 -8.41195 156.866 1 16 -8.42001 156.865 TC 15 3 252
1982131S09157 1982 28 SP EA CLAUDIA 1982-05-12 00:00:00 TS -8.49837 156.700 main 59 59 O_________P_O_ jtwc_sh SH281982 -8.50000 156.700 15 -1 -8.49511 156.700 1 17 -8.50000 156.700 TC 15 4 237
1982131S09157 1982 28 SP EA CLAUDIA 1982-05-12 03:00:00 TS -8.62857 156.535 main 84 84 P_________P_P_ SH281982 -8.62751 156.535 17 -1 -8.63070 156.534 1 18 -8.62751 156.535 TC 17 4 224
1982131S09157 1982 28 SP EA CLAUDIA 1982-05-12 06:00:00 TS -8.80000 156.400 main 104 104 O_________O_O_ jtwc_sh SH281982 -8.80000 156.400 20 -1 -8.80000 156.400 1 20 -8.80000 156.400 TC 20 4 210
1982131S09157 1982 28 SP EA CLAUDIA 1982-05-12 09:00:00 TS -8.98269 156.329 main 126 126 P_________P_P_ SH281982 -8.99249 156.327 20 -1 -8.96309 156.331 1 20 -8.99249 156.327 TC 20 4 194
1982131S09157 1982 28 SP EA CLAUDIA 1982-05-12 12:00:00 TS -9.18499 156.299 main 141 141 O_________P_O_ jtwc_sh SH281982 -9.20000 156.300 20 -1 -9.15497 156.297 1 20 -9.20000 156.300 TC 20 4 185
1982131S09157 1982 28 SP EA CLAUDIA 1982-05-12 15:00:00 TS -9.38479 156.292 main 158 158 P_________P_P_ SH281982 -9.39250 156.292 20 -1 -9.36936 156.290 1 20 -9.39250 156.292 TC 20 4 0
1982131S09157 1982 28 SP EA CLAUDIA 1982-05-12 18:00:00 TS -9.60000 156.300 main 176 176 O_________O_O_ jtwc_sh SH281982 -9.60000 156.300 20 -1 -9.60000 156.300 1 20 -9.60000 156.300 TC 20 5 0
1982131S09157 1982 28 SP EA CLAUDIA 1982-05-12 21:00:00 TS -9.84292 156.297 main 194 194 P_________P_P_ SH281982 -9.84250 156.293 20 -1 -9.84375 156.307 1 21 -9.84250 156.293 TC 20 4 0
1982131S09157 1982 28 SP EA CLAUDIA 1982-05-13 00:00:00 TS -10.0154 156.285 main 214 214 O_______O_P_O_ jtwc_sh SH281982 -10.1000 156.300 20 -1 -9.00000 156.000 30 997 -10.1000 156.327 1 22 -10.1000 156.300 TC 20 4 183
1982131S09157 1982 28 SP EA CLAUDIA 1982-05-13 03:00:00 TS -10.2157 156.297 main 234 234 P_______P_P_P_ SH281982 -10.3575 156.342 22 -1 -9.36721 155.989 30 997 -10.3562 156.360 1 23 -10.3575 156.342 TC 22 4 173
1982131S09157 1982 28 SP EA CLAUDIA 1982-05-13 06:00:00 TS -10.4275 156.316 main 255 255 O_______P_O_O_ jtwc_sh SH281982 -10.6000 156.400 25 -1 -9.73754 155.983 30 997 -10.6000 156.400 1 25 -10.6000 156.400 TC 25 4 175
1982131S09157 1982 28 SP EA CLAUDIA 1982-05-13 09:00:00 TS -10.6348 156.332 main 275 275 P_______P_P_P_ SH281982 -10.8075 156.450 25 -1 -10.1141 155.985 30 997 -10.8103 156.443 1 25 -10.8075 156.450 TC 25 5 173
1982131S09157 1982 28 SP EA CLAUDIA 1982-05-13 12:00:00 TS -10.8769 156.373 main 299 299 O_______O_P_O_ jtwc_sh SH281982 -11.0000 156.500 25 -1 -10.5000 156.000 30 997 -11.0075 156.493 1 25 -11.0000 156.500 TC 25 5 170
1982131S09157 1982 28 SP EA CLAUDIA 1982-05-13 15:00:00 TS -11.1241 156.419 main 319 319 P_______P_P_P_ SH281982 -11.2000 156.550 25 -1 -10.8953 156.032 30 997 -11.2009 156.546 1 25 -11.2000 156.550 TC 25 5 169
1982131S09157 1982 28 SP EA CLAUDIA 1982-05-13 18:00:00 TS -11.3719 156.469 main 344 344 O_______P_O_O_ jtwc_sh SH281982 -11.4000 156.600 25 -1 -11.2875 156.077 30 997 -11.4000 156.600 1 25 -11.4000 156.600 TC 25 5 168
1982131S09157 1982 28 SP EA CLAUDIA 1982-05-13 21:00:00 TS -11.6159 156.521 main 364 364 P_______P_P_P_ SH281982 -11.5925 156.650 25 -1 -11.6609 156.135 30 997 -11.6178 156.650 1 26 -11.5925 156.650 TC 25 5 168
1982131S09157 1982 28 SP EA CLAUDIA 1982-05-14 00:00:00 TS -11.8606 156.575 main 392 392 O_______O_P_O_ jtwc_sh SH281982 -11.8000 156.700 25 -1 -12.0000 156.200 30 997 -11.8425 156.700 1 27 -11.8000 156.700 TC 25 5 168
1982131S09157 1982 28 SP EA CLAUDIA 1982-05-14 03:00:00 TS -12.1162 156.627 main 413 413 P_______P_P_P_ SH281982 -12.0500 156.750 27 -1 -12.2940 156.260 31 996 -12.0709 156.750 1 28 -12.0500 156.750 TC 27 5 168
1982131S09157 1982 28 SP EA CLAUDIA 1982-05-14 06:00:00 TS -12.3631 156.682 main 442 442 O_______P_O_O_ jtwc_sh SH281982 -12.3000 156.800 30 -1 -12.5524 156.328 32 996 -12.3000 156.800 1 30 -12.3000 156.800 TC 30 5 167
1982131S09157 1982 28 SP EA CLAUDIA 1982-05-14 09:00:00 TS -12.5774 156.733 main 461 453 P_______P_P_P_ SH281982 -12.5000 156.850 30 -1 -12.7846 156.407 33 995 -12.5249 156.826 1 30 -12.5000 156.850 TC 30 4 166
1982131S09157 1982 28 SP EA CLAUDIA 1982-05-14 12:00:00 TS -12.7875 156.789 main 469 469 O_______O_P_O_ jtwc_sh SH281982 -12.7000 156.900 30 -1 -13.0000 156.500 35 995 -12.7499 156.855 1 30 -12.7000 156.900 TC 30 5 167
1982131S09157 1982 28 SP EA CLAUDIA 1982-05-14 15:00:00 TS -13.0253 156.841 main 485 485 P_______P_P_P_ SH281982 -12.9500 156.935 30 -1 -13.2265 156.586 36 993 -12.9749 156.907 1 30 -12.9500 156.935 TC 30 5 169
1982131S09157 1982 28 SP EA CLAUDIA 1982-05-14 18:00:00 TS -13.2970 156.892 25 1002 bom main 503 503 O_____O_P_O_O_ jtwc_sh SH281982 -13.2000 157.000 30 -1 -13.9000 156.400 20 25 1002 2.00000 -13.4373 156.690 37 992 -13.2000 157.000 1 30 -13.2000 157.000 TC 30 45 45 5 162
1982131S09157 1982 28 SP EA CLAUDIA 1982-05-14 21:00:00 TS -13.5295 157.012 main 514 514 P_____P_P_P_P_ SH281982 -13.4000 157.120 30 -1 -14.0076 156.700 20 27 1000 -13.6295 156.824 38 991 -13.4493 157.140 1 31 -13.4000 157.120 TC 30 5 147
1982131S09157 1982 28 SP EA CLAUDIA 1982-05-15 00:00:00 TS -13.7410 157.195 30 998 bom main 520 520 O_____O_O_P_O_ jtwc_sh SH281982 -13.6000 157.300 30 -1 -14.1000 157.000 20 30 998 2.50000 -13.8000 157.000 40 990 -13.6949 157.325 1 32 -13.6000 157.300 TC 30 45 45 6 136
1982131S09157 1982 28 SP EA CLAUDIA 1982-05-15 03:00:00 TS -13.9538 157.427 main 538 527 P_____P_P_P_P_ SH281982 -13.8575 157.527 32 -1 -14.1650 157.300 20 30 997 -13.9710 157.232 40 990 -13.9180 157.547 1 33 -13.8575 157.527 TC 32 6 128
1982131S09157 1982 28 SP EA CLAUDIA 1982-05-15 06:00:00 TS -14.1235 157.701 30 996 bom main 533 530 O_____O_P_O_O_ jtwc_sh SH281982 -14.1000 157.800 35 0 -14.2000 157.600 20 30 996 2.50000 -14.1176 157.505 40 990 -14.1000 157.800 2 35 -14.1000 157.800 TC 35 45 45 6 119
1982131S09157 1982 28 SP EA CLAUDIA 1982-05-15 09:00:00 TS -14.2550 157.993 main 540 529 P_____P_P_P_P_ SH281982 -14.2875 158.092 35 0 -14.2150 157.908 20 30 996 -14.2304 157.800 40 990 -14.2547 158.071 2 36 -14.2875 158.092 TC 35 6 110
1982131S09157 1982 28 SP EA CLAUDIA 1982-05-15 12:00:00 TS -14.3325 158.294 30 996 bom main 529 526 O_____O_O_P_O_ jtwc_sh SH281982 -14.4000 158.400 35 0 -14.2000 158.200 20 30 996 2.50000 -14.3000 158.100 40 990 -14.3625 158.370 2 37 -14.4000 158.400 TC 35 45 45 6 101
1982131S09157 1982 28 SP EA CLAUDIA 1982-05-15 15:00:00 TS -14.3615 158.585 main 529 501 P_____P_P_P_P_ SH281982 -14.4450 158.700 37 0 -14.1650 158.473 20 32 995 -14.3383 158.367 40 990 -14.4141 158.684 2 38 -14.4450 158.700 TC 37 6 89
1982131S09157 1982 28 SP EA CLAUDIA 1982-05-15 18:00:00 TS -14.3265 158.867 35 994 bom main 501 480 O_____O_P_O_O_ jtwc_sh SH281982 -14.4000 159.000 40 0 -14.1000 158.700 30 35 994 3.00000 -14.3323 158.635 40 990 -14.4000 159.000 2 40 -14.4000 159.000 TC 40 49 49 5 76
1982131S09157 1982 28 SP EA CLAUDIA 1982-05-15 21:00:00 TS -14.2304 159.128 main 480 452 P_____P_P_P_P_ SH281982 -14.2725 159.300 40 0 -14.0074 158.842 30 37 993 -14.2851 158.911 40 990 -14.3145 159.288 2 40 -14.2725 159.300 TC 40 6 66
1982131S09157 1982 28 SP EA CLAUDIA 1982-05-16 00:00:00 TS -14.0934 159.396 40 992 bom main 452 424 O_____O_O_P_O_ jtwc_sh SH281982 -14.1000 159.600 40 0 -13.9000 159.000 30 40 992 3.00000 -14.2000 159.200 40 990 -14.1672 159.578 2 40 -14.1000 159.600 TC 40 55 55 6 64
1982131S09157 1982 28 SP EA CLAUDIA 1982-05-16 03:00:00 TS -13.9607 159.688 main 424 388 P_____P_P_P_P_ SH281982 -13.9499 159.885 40 0 -13.8149 159.255 30 40 992 -14.1023 159.535 40 990 -13.9863 159.879 2 40 -13.9499 159.885 TC 40 7 65
1982131S09157 1982 28 SP MM CLAUDIA 1982-05-16 06:00:00 TS -13.8135 160.016 40 992 bom main 388 358 O_____O_P_O_O_ jtwc_sh SH281982 -13.8000 160.200 40 0 -13.7000 159.600 30 40 992 3.00000 -13.9677 159.880 40 990 -13.8000 160.200 2 40 -13.8000 160.200 TC 40 55 55 8 67
1982131S09157 1982 28 SP MM CLAUDIA 1982-05-16 09:00:00 TS -13.6616 160.409 main 358 321 P_____P_P_P_P_ SH281982 -13.6500 160.592 40 0 -13.5300 160.027 30 35 994 -13.7992 160.210 40 990 -13.6789 160.623 2 38 -13.6500 160.592 TC 40 8 67
1982131S09157 1982 28 SP MM CLAUDIA 1982-05-16 12:00:00 TS -13.4906 160.811 40 990 wellington main 321 287 O_____O_O_P_O_ jtwc_sh SH281982 -13.5000 161.000 40 0 -13.3000 160.500 20 30 996 2.50000 -13.6000 160.500 40 990 -13.5531 161.055 2 37 -13.5000 161.000 TC 40 45 45 8 65
1982131S09157 1982 28 SP MM CLAUDIA 1982-05-16 15:00:00 TS -13.3055 161.181 main 287 259 P_____P_P_P_P_ SH281982 -13.3725 161.395 37 0 -13.0073 160.935 20 30 996 -13.3745 160.743 38 991 -13.4007 161.435 2 36 -13.3725 161.395 TC 37 8 60
1982131S09157 1982 28 SP MM CLAUDIA 1982-05-16 18:00:00 TS -13.1047 161.493 main 259 235 O_____O_P_O_O_ jtwc_sh SH281982 -13.2000 161.700 35 0 -12.7000 161.400 20 30 996 2.50000 -13.1223 160.940 37 992 -13.2000 161.700 2 35 -13.2000 161.700 TC 35 45 45 7 48
1982131S09157 1982 28 SP MM CLAUDIA 1982-05-16 21:00:00 TS -12.8508 161.697 main 235 201 P_____P_P_P_P_ SH281982 -12.9299 161.883 35 0 -12.4353 161.930 20 27 998 -12.8590 161.093 36 993 -12.8924 161.813 2 33 -12.9299 161.883 TC 35 6 25
1982131S09157 1982 28 SP MM CLAUDIA 1982-05-17 00:00:00 TS -12.5628 161.748 35 995 wellington main 201 168 O_____O_O_P_O_ jtwc_sh SH281982 -12.6000 161.900 35 0 -12.2000 162.500 20 25 1000 2.00000 -12.6000 161.200 35 995 -12.5419 161.802 2 32 -12.6000 161.900 TC 35 45 45 6 353
1982131S09157 1982 28 SP MM CLAUDIA 1982-05-17 03:00:00 TS -12.2525 161.624 main 169 138 P_______P_P_P_ SH281982 -12.2275 161.760 32 -1 20 -12.3596 161.284 33 995 -12.1956 161.691 2 31 -12.2275 161.760 TC 32 7 335
1982131S09157 1982 28 SP MM CLAUDIA 1982-05-17 06:00:00 TS -11.9569 161.456 main 138 120 O_______P_O_O_ jtwc_sh SH281982 -11.9000 161.500 30 -1 -12.1274 161.325 32 996 -11.9000 161.500 1 30 -11.9000 161.500 TC 30 6 324
1982131S09157 1982 28 SP MM CLAUDIA 1982-05-17 09:00:00 TS -11.7613 161.256 main 124 117 P_______P_P_P_ SH281982 -11.7125 161.215 30 -1 -11.9065 161.328 31 996 -11.7136 161.268 1 28 -11.7125 161.215 TC 30 5 308
1982131S09157 1982 28 SP MM CLAUDIA 1982-05-17 12:00:00 TS -11.6207 161.017 30 997 wellington main 124 120 O_______O_P_O_ jtwc_sh SH281982 -11.6000 160.900 30 -1 -11.7000 161.300 30 997 -11.5828 160.967 1 27 -11.6000 160.900 TC 30 5 299
1982131S09157 1982 28 SP MM CLAUDIA 1982-05-17 15:00:00 TS -11.4950 160.770 main 126 126 P_______P_P_P_ SH281982 -11.4925 160.600 27 -1 -11.5097 161.247 30 997 -11.4855 160.633 1 26 -11.4925 160.600 TC 27 6 294
1982131S09157 1982 28 SP MM CLAUDIA 1982-05-17 18:00:00 TS -11.3865 160.475 main 141 141 O_______P_O_O_ jtwc_sh SH281982 -11.4000 160.300 25 -1 -11.3326 161.175 30 997 -11.4000 160.300 1 25 -11.4000 160.300 TC 25 6 289
1982131S09157 1982 28 SP MM CLAUDIA 1982-05-17 21:00:00 TS -11.2831 160.150 main 166 156 P_______P_P_P_ SH281982 -11.3000 159.993 25 -1 -11.1641 161.091 30 997 -11.3087 159.994 1 23 -11.3000 159.993 TC 25 7 288
1982131S09157 1982 28 SP EA CLAUDIA 1982-05-18 00:00:00 TS -11.1830 159.834 30 997 wellington main 156 146 O_______O_P_O_ jtwc_sh SH281982 -11.2000 159.700 25 -1 -11.0000 161.000 30 997 -11.2100 159.715 1 22 -11.2000 159.700 TC 25 7 285
1982131S09157 1982 28 SP EA CLAUDIA 1982-05-18 03:00:00 TS -11.1021 159.444 main 152 145 P_________P_P_ SH281982 -11.1000 159.440 22 -1 -11.1063 159.453 1 21 -11.1000 159.440 TC 22 7 286
1982131S09157 1982 28 SP EA CLAUDIA 1982-05-18 06:00:00 TS -11.0000 159.200 main 149 O_________O_O_ jtwc_sh SH281982 -11.0000 159.200 20 -1 -11.0000 159.200 1 20 -11.0000 159.200 TC 20 5 293

デジタル台風データ・検索

IBTrACS Databaseについて

本データベースは、米国NOAAが公開する1842年以降の世界の熱帯低気圧のベストトラックデータアーカイブInternational Best Track Archive for Climate Stewardship (IBTrACS)を、ウェブで閲覧しやすい形式に変換したものです。

最終更新日:2021-12-03